sensor_id;sensor_type;location;lat;lon;timestamp;P1;durP1;ratioP1;P2;durP2;ratioP2
54897;SDS011;40800;52.704;6.398;2022-11-15T00:00:50;33.35;;;29.88;;
54897;SDS011;40800;52.704;6.398;2022-11-15T00:03:18;32.38;;;29.17;;
54897;SDS011;40800;52.704;6.398;2022-11-15T00:05:51;33.30;;;29.85;;
54897;SDS011;40800;52.704;6.398;2022-11-15T00:08:17;32.33;;;29.08;;
54897;SDS011;40800;52.704;6.398;2022-11-15T00:10:43;33.63;;;30.15;;
54897;SDS011;40800;52.704;6.398;2022-11-15T00:13:18;35.25;;;31.60;;
54897;SDS011;40800;52.704;6.398;2022-11-15T00:15:43;34.60;;;30.92;;
54897;SDS011;40800;52.704;6.398;2022-11-15T00:18:12;35.67;;;32.13;;
54897;SDS011;40800;52.704;6.398;2022-11-15T00:20:39;34.67;;;31.02;;
54897;SDS011;40800;52.704;6.398;2022-11-15T00:23:05;35.00;;;31.30;;
54897;SDS011;40800;52.704;6.398;2022-11-15T00:25:32;34.60;;;30.90;;
54897;SDS011;40800;52.704;6.398;2022-11-15T00:27:58;34.37;;;30.83;;
54897;SDS011;40800;52.704;6.398;2022-11-15T00:30:25;33.47;;;30.27;;
54897;SDS011;40800;52.704;6.398;2022-11-15T00:32:51;35.08;;;31.48;;
54897;SDS011;40800;52.704;6.398;2022-11-15T00:35:17;35.47;;;31.77;;
54897;SDS011;40800;52.704;6.398;2022-11-15T00:37:43;35.63;;;31.95;;
54897;SDS011;40800;52.704;6.398;2022-11-15T00:40:09;35.58;;;31.80;;
54897;SDS011;40800;52.704;6.398;2022-11-15T00:42:35;36.03;;;32.42;;
54897;SDS011;40800;52.704;6.398;2022-11-15T00:45:01;36.92;;;32.08;;
54897;SDS011;40800;52.704;6.398;2022-11-15T00:47:27;35.00;;;31.27;;
54897;SDS011;40800;52.704;6.398;2022-11-15T00:49:52;35.28;;;31.40;;
54897;SDS011;40800;52.704;6.398;2022-11-15T00:52:18;36.00;;;32.08;;
54897;SDS011;40800;52.704;6.398;2022-11-15T00:54:43;36.75;;;32.92;;
54897;SDS011;40800;52.704;6.398;2022-11-15T00:57:09;36.95;;;33.03;;
54897;SDS011;40800;52.704;6.398;2022-11-15T00:59:35;35.92;;;32.03;;
54897;SDS011;40800;52.704;6.398;2022-11-15T01:02:01;37.97;;;33.35;;
54897;SDS011;40800;52.704;6.398;2022-11-15T01:04:26;38.13;;;34.08;;
54897;SDS011;40800;52.704;6.398;2022-11-15T01:06:52;36.83;;;32.83;;
54897;SDS011;40800;52.704;6.398;2022-11-15T01:09:18;37.30;;;32.10;;
54897;SDS011;40800;52.704;6.398;2022-11-15T01:11:44;37.17;;;32.58;;
54897;SDS011;40800;52.704;6.398;2022-11-15T01:14:09;37.00;;;33.03;;
54897;SDS011;40800;52.704;6.398;2022-11-15T01:16:35;38.70;;;32.95;;
54897;SDS011;40800;52.704;6.398;2022-11-15T01:19:01;36.67;;;32.70;;
54897;SDS011;40800;52.704;6.398;2022-11-15T01:21:27;37.03;;;33.00;;
54897;SDS011;40800;52.704;6.398;2022-11-15T01:23:53;35.20;;;31.55;;
54897;SDS011;40800;52.704;6.398;2022-11-15T01:26:20;38.25;;;33.92;;
54897;SDS011;40800;52.704;6.398;2022-11-15T01:28:46;37.40;;;33.13;;
54897;SDS011;40800;52.704;6.398;2022-11-15T01:31:13;36.25;;;32.05;;
54897;SDS011;40800;52.704;6.398;2022-11-15T01:33:43;35.85;;;31.50;;
54897;SDS011;40800;52.704;6.398;2022-11-15T01:36:14;36.23;;;31.73;;
54897;SDS011;40800;52.704;6.398;2022-11-15T01:38:41;34.53;;;30.92;;
54897;SDS011;40800;52.704;6.398;2022-11-15T01:41:17;35.70;;;31.88;;
54897;SDS011;40800;52.704;6.398;2022-11-15T01:43:46;36.22;;;32.38;;
54897;SDS011;40800;52.704;6.398;2022-11-15T01:46:29;39.70;;;33.65;;
54897;SDS011;40800;52.704;6.398;2022-11-15T01:49:00;37.22;;;32.08;;
54897;SDS011;40800;52.704;6.398;2022-11-15T01:51:29;37.83;;;33.25;;
54897;SDS011;40800;52.704;6.398;2022-11-15T01:53:59;39.58;;;32.65;;
54897;SDS011;40800;52.704;6.398;2022-11-15T01:56:30;40.22;;;33.03;;
54897;SDS011;40800;52.704;6.398;2022-11-15T01:59:02;37.47;;;32.45;;
54897;SDS011;40800;52.704;6.398;2022-11-15T02:01:30;39.88;;;32.90;;
54897;SDS011;40800;52.704;6.398;2022-11-15T02:06:41;41.85;;;33.17;;
54897;SDS011;40800;52.704;6.398;2022-11-15T02:09:08;38.40;;;32.58;;
54897;SDS011;40800;52.704;6.398;2022-11-15T02:11:34;45.30;;;33.78;;
54897;SDS011;40800;52.704;6.398;2022-11-15T02:13:59;44.15;;;33.95;;
54897;SDS011;40800;52.704;6.398;2022-11-15T02:19:01;47.22;;;35.92;;
54897;SDS011;40800;52.704;6.398;2022-11-15T02:21:40;44.25;;;34.03;;
54897;SDS011;40800;52.704;6.398;2022-11-15T02:24:42;47.47;;;35.75;;
54897;SDS011;40800;52.704;6.398;2022-11-15T02:32:52;53.75;;;36.15;;
54897;SDS011;40800;52.704;6.398;2022-11-15T02:35:34;50.70;;;37.53;;
54897;SDS011;40800;52.704;6.398;2022-11-15T02:41:15;57.03;;;38.80;;
54897;SDS011;40800;52.704;6.398;2022-11-15T02:43:49;50.28;;;37.20;;
54897;SDS011;40800;52.704;6.398;2022-11-15T02:46:42;56.58;;;39.40;;
54897;SDS011;40800;52.704;6.398;2022-11-15T02:49:32;56.00;;;39.03;;
54897;SDS011;40800;52.704;6.398;2022-11-15T02:51:59;56.92;;;39.05;;
54897;SDS011;40800;52.704;6.398;2022-11-15T02:54:26;49.17;;;36.08;;
54897;SDS011;40800;52.704;6.398;2022-11-15T02:56:56;50.80;;;37.65;;
54897;SDS011;40800;52.704;6.398;2022-11-15T02:59:38;56.67;;;39.72;;
54897;SDS011;40800;52.704;6.398;2022-11-15T03:05:25;56.17;;;39.70;;
54897;SDS011;40800;52.704;6.398;2022-11-15T03:08:05;66.00;;;42.28;;
54897;SDS011;40800;52.704;6.398;2022-11-15T03:18:32;51.80;;;39.90;;
54897;SDS011;40800;52.704;6.398;2022-11-15T03:21:02;54.33;;;38.85;;
54897;SDS011;40800;52.704;6.398;2022-11-15T03:23:32;53.67;;;39.05;;
54897;SDS011;40800;52.704;6.398;2022-11-15T03:25:59;60.55;;;42.95;;
54897;SDS011;40800;52.704;6.398;2022-11-15T03:28:34;53.75;;;39.67;;
54897;SDS011;40800;52.704;6.398;2022-11-15T03:31:07;60.15;;;43.75;;
54897;SDS011;40800;52.704;6.398;2022-11-15T03:33:55;53.88;;;38.83;;
54897;SDS011;40800;52.704;6.398;2022-11-15T03:36:23;50.30;;;39.83;;
54897;SDS011;40800;52.704;6.398;2022-11-15T03:38:53;52.70;;;38.03;;
54897;SDS011;40800;52.704;6.398;2022-11-15T03:41:22;72.25;;;45.70;;
54897;SDS011;40800;52.704;6.398;2022-11-15T03:43:56;53.28;;;39.67;;
54897;SDS011;40800;52.704;6.398;2022-11-15T03:46:39;71.80;;;45.03;;
54897;SDS011;40800;52.704;6.398;2022-11-15T03:49:20;48.03;;;38.63;;
54897;SDS011;40800;52.704;6.398;2022-11-15T03:51:56;53.83;;;41.28;;
54897;SDS011;40800;52.704;6.398;2022-11-15T03:54:23;51.45;;;39.85;;
54897;SDS011;40800;52.704;6.398;2022-11-15T03:56:48;58.50;;;42.28;;
54897;SDS011;40800;52.704;6.398;2022-11-15T03:59:14;57.05;;;41.25;;
54897;SDS011;40800;52.704;6.398;2022-11-15T04:01:39;68.30;;;44.78;;
54897;SDS011;40800;52.704;6.398;2022-11-15T04:04:05;74.40;;;48.33;;
54897;SDS011;40800;52.704;6.398;2022-11-15T04:06:30;64.53;;;44.03;;
54897;SDS011;40800;52.704;6.398;2022-11-15T04:08:56;55.80;;;41.92;;
54897;SDS011;40800;52.704;6.398;2022-11-15T04:11:22;55.13;;;41.35;;
54897;SDS011;40800;52.704;6.398;2022-11-15T04:13:47;76.47;;;49.08;;
54897;SDS011;40800;52.704;6.398;2022-11-15T04:16:13;70.25;;;47.88;;
54897;SDS011;40800;52.704;6.398;2022-11-15T04:18:38;62.83;;;45.50;;
54897;SDS011;40800;52.704;6.398;2022-11-15T04:21:04;70.55;;;46.78;;
54897;SDS011;40800;52.704;6.398;2022-11-15T04:23:48;69.55;;;47.83;;
54897;SDS011;40800;52.704;6.398;2022-11-15T04:26:32;75.88;;;49.28;;
54897;SDS011;40800;52.704;6.398;2022-11-15T04:28:58;79.75;;;49.78;;
54897;SDS011;40800;52.704;6.398;2022-11-15T04:31:42;74.10;;;49.92;;
54897;SDS011;40800;52.704;6.398;2022-11-15T04:34:07;73.32;;;50.00;;
54897;SDS011;40800;52.704;6.398;2022-11-15T04:36:33;75.10;;;50.42;;
54897;SDS011;40800;52.704;6.398;2022-11-15T04:39:17;68.53;;;49.70;;
54897;SDS011;40800;52.704;6.398;2022-11-15T04:41:43;72.78;;;48.78;;
54897;SDS011;40800;52.704;6.398;2022-11-15T04:44:08;73.57;;;50.92;;
54897;SDS011;40800;52.704;6.398;2022-11-15T04:46:34;74.60;;;50.67;;
54897;SDS011;40800;52.704;6.398;2022-11-15T04:49:00;69.15;;;51.40;;
54897;SDS011;40800;52.704;6.398;2022-11-15T04:51:26;72.63;;;51.90;;
54897;SDS011;40800;52.704;6.398;2022-11-15T04:53:51;74.50;;;51.63;;
54897;SDS011;40800;52.704;6.398;2022-11-15T04:56:17;67.47;;;50.53;;
54897;SDS011;40800;52.704;6.398;2022-11-15T04:58:43;77.50;;;51.30;;
54897;SDS011;40800;52.704;6.398;2022-11-15T05:01:13;69.88;;;49.90;;
54897;SDS011;40800;52.704;6.398;2022-11-15T05:03:40;61.22;;;46.83;;
54897;SDS011;40800;52.704;6.398;2022-11-15T05:06:24;64.97;;;48.88;;
54897;SDS011;40800;52.704;6.398;2022-11-15T05:08:50;56.85;;;44.97;;
54897;SDS011;40800;52.704;6.398;2022-11-15T05:11:15;56.10;;;44.20;;
54897;SDS011;40800;52.704;6.398;2022-11-15T05:13:41;52.70;;;44.90;;
54897;SDS011;40800;52.704;6.398;2022-11-15T05:16:07;49.22;;;42.30;;
54897;SDS011;40800;52.704;6.398;2022-11-15T05:18:32;57.40;;;45.10;;
54897;SDS011;40800;52.704;6.398;2022-11-15T05:21:05;51.10;;;43.63;;
54897;SDS011;40800;52.704;6.398;2022-11-15T05:23:31;58.53;;;45.17;;
54897;SDS011;40800;52.704;6.398;2022-11-15T05:26:00;48.65;;;41.50;;
54897;SDS011;40800;52.704;6.398;2022-11-15T05:28:27;56.00;;;45.53;;
54897;SDS011;40800;52.704;6.398;2022-11-15T05:30:53;53.28;;;42.55;;
54897;SDS011;40800;52.704;6.398;2022-11-15T05:33:18;54.42;;;43.05;;
54897;SDS011;40800;52.704;6.398;2022-11-15T05:35:48;55.35;;;43.85;;
54897;SDS011;40800;52.704;6.398;2022-11-15T05:38:19;53.22;;;43.00;;
54897;SDS011;40800;52.704;6.398;2022-11-15T05:40:45;59.83;;;45.05;;
54897;SDS011;40800;52.704;6.398;2022-11-15T05:43:11;54.47;;;42.78;;
54897;SDS011;40800;52.704;6.398;2022-11-15T05:45:37;53.22;;;42.83;;
54897;SDS011;40800;52.704;6.398;2022-11-15T05:48:04;61.80;;;45.08;;
54897;SDS011;40800;52.704;6.398;2022-11-15T05:50:33;59.35;;;44.88;;
54897;SDS011;40800;52.704;6.398;2022-11-15T05:53:01;60.53;;;45.67;;
54897;SDS011;40800;52.704;6.398;2022-11-15T05:55:27;53.22;;;42.17;;
54897;SDS011;40800;52.704;6.398;2022-11-15T05:57:53;58.17;;;45.17;;
54897;SDS011;40800;52.704;6.398;2022-11-15T06:00:19;55.85;;;43.42;;
54897;SDS011;40800;52.704;6.398;2022-11-15T06:02:44;59.80;;;45.60;;
54897;SDS011;40800;52.704;6.398;2022-11-15T06:05:10;54.40;;;43.65;;
54897;SDS011;40800;52.704;6.398;2022-11-15T06:07:35;59.80;;;44.33;;
54897;SDS011;40800;52.704;6.398;2022-11-15T06:10:01;59.85;;;45.72;;
54897;SDS011;40800;52.704;6.398;2022-11-15T06:12:26;61.10;;;45.78;;
54897;SDS011;40800;52.704;6.398;2022-11-15T06:14:52;55.15;;;42.97;;
54897;SDS011;40800;52.704;6.398;2022-11-15T06:17:18;57.67;;;43.92;;
54897;SDS011;40800;52.704;6.398;2022-11-15T06:19:43;57.80;;;44.55;;
54897;SDS011;40800;52.704;6.398;2022-11-15T06:22:09;58.60;;;43.70;;
54897;SDS011;40800;52.704;6.398;2022-11-15T06:24:34;55.53;;;44.75;;
54897;SDS011;40800;52.704;6.398;2022-11-15T06:27:00;56.65;;;43.78;;
54897;SDS011;40800;52.704;6.398;2022-11-15T06:29:25;58.25;;;43.33;;
54897;SDS011;40800;52.704;6.398;2022-11-15T06:31:51;51.67;;;41.60;;
54897;SDS011;40800;52.704;6.398;2022-11-15T06:34:18;54.88;;;43.40;;
54897;SDS011;40800;52.704;6.398;2022-11-15T06:36:43;51.88;;;44.47;;
54897;SDS011;40800;52.704;6.398;2022-11-15T06:39:09;57.92;;;44.28;;
54897;SDS011;40800;52.704;6.398;2022-11-15T06:41:34;51.25;;;43.88;;
54897;SDS011;40800;52.704;6.398;2022-11-15T06:44:01;47.47;;;42.13;;
54897;SDS011;40800;52.704;6.398;2022-11-15T06:46:27;47.38;;;41.72;;
54897;SDS011;40800;52.704;6.398;2022-11-15T06:48:53;49.65;;;42.08;;
54897;SDS011;40800;52.704;6.398;2022-11-15T06:51:20;49.87;;;41.83;;
54897;SDS011;40800;52.704;6.398;2022-11-15T06:53:45;47.45;;;40.67;;
54897;SDS011;40800;52.704;6.398;2022-11-15T06:56:11;46.83;;;40.25;;
54897;SDS011;40800;52.704;6.398;2022-11-15T06:58:37;47.20;;;39.78;;
54897;SDS011;40800;52.704;6.398;2022-11-15T07:01:06;44.35;;;39.55;;
54897;SDS011;40800;52.704;6.398;2022-11-15T07:03:34;51.88;;;38.45;;
54897;SDS011;40800;52.704;6.398;2022-11-15T07:06:00;45.70;;;40.33;;
54897;SDS011;40800;52.704;6.398;2022-11-15T07:08:26;43.90;;;39.20;;
54897;SDS011;40800;52.704;6.398;2022-11-15T07:10:54;44.30;;;39.15;;
54897;SDS011;40800;52.704;6.398;2022-11-15T07:13:25;43.92;;;38.90;;
54897;SDS011;40800;52.704;6.398;2022-11-15T07:15:51;43.78;;;39.00;;
54897;SDS011;40800;52.704;6.398;2022-11-15T07:18:17;44.42;;;38.63;;
54897;SDS011;40800;52.704;6.398;2022-11-15T07:20:43;42.78;;;38.10;;
54897;SDS011;40800;52.704;6.398;2022-11-15T07:23:09;42.30;;;37.80;;
54897;SDS011;40800;52.704;6.398;2022-11-15T07:25:34;43.60;;;37.92;;
54897;SDS011;40800;52.704;6.398;2022-11-15T07:28:00;44.15;;;37.92;;
54897;SDS011;40800;52.704;6.398;2022-11-15T07:30:26;44.28;;;39.65;;
54897;SDS011;40800;52.704;6.398;2022-11-15T07:32:53;43.10;;;38.45;;
54897;SDS011;40800;52.704;6.398;2022-11-15T07:35:24;41.97;;;37.58;;
54897;SDS011;40800;52.704;6.398;2022-11-15T07:37:57;46.28;;;38.75;;
54897;SDS011;40800;52.704;6.398;2022-11-15T07:40:24;41.83;;;37.10;;
54897;SDS011;40800;52.704;6.398;2022-11-15T07:42:50;42.30;;;37.80;;
54897;SDS011;40800;52.704;6.398;2022-11-15T07:45:19;42.42;;;37.90;;
54897;SDS011;40800;52.704;6.398;2022-11-15T07:52:40;42.78;;;37.92;;
54897;SDS011;40800;52.704;6.398;2022-11-15T07:55:06;42.65;;;38.00;;
54897;SDS011;40800;52.704;6.398;2022-11-15T07:57:32;39.95;;;35.65;;
54897;SDS011;40800;52.704;6.398;2022-11-15T07:59:58;40.97;;;36.63;;
54897;SDS011;40800;52.704;6.398;2022-11-15T08:02:23;41.88;;;37.47;;
54897;SDS011;40800;52.704;6.398;2022-11-15T08:04:49;41.75;;;37.33;;
54897;SDS011;40800;52.704;6.398;2022-11-15T08:07:14;41.17;;;36.88;;
54897;SDS011;40800;52.704;6.398;2022-11-15T08:09:40;40.63;;;36.25;;
54897;SDS011;40800;52.704;6.398;2022-11-15T08:12:06;39.92;;;35.72;;
54897;SDS011;40800;52.704;6.398;2022-11-15T08:14:31;41.03;;;36.60;;
54897;SDS011;40800;52.704;6.398;2022-11-15T08:16:57;41.05;;;36.78;;
54897;SDS011;40800;52.704;6.398;2022-11-15T08:19:23;39.33;;;35.22;;
54897;SDS011;40800;52.704;6.398;2022-11-15T08:21:48;42.53;;;37.63;;
54897;SDS011;40800;52.704;6.398;2022-11-15T08:24:14;41.00;;;36.63;;
54897;SDS011;40800;52.704;6.398;2022-11-15T08:26:40;39.65;;;35.33;;
54897;SDS011;40800;52.704;6.398;2022-11-15T08:29:06;41.20;;;36.55;;
54897;SDS011;40800;52.704;6.398;2022-11-15T08:31:34;39.10;;;35.03;;
54897;SDS011;40800;52.704;6.398;2022-11-15T08:34:01;42.70;;;38.00;;
54897;SDS011;40800;52.704;6.398;2022-11-15T08:36:27;40.25;;;36.20;;
54897;SDS011;40800;52.704;6.398;2022-11-15T08:38:53;42.80;;;36.70;;
54897;SDS011;40800;52.704;6.398;2022-11-15T08:41:40;41.45;;;37.03;;
54897;SDS011;40800;52.704;6.398;2022-11-15T08:44:05;41.05;;;36.85;;
54897;SDS011;40800;52.704;6.398;2022-11-15T08:46:30;41.78;;;37.47;;
54897;SDS011;40800;52.704;6.398;2022-11-15T08:48:56;40.17;;;35.90;;
54897;SDS011;40800;52.704;6.398;2022-11-15T08:51:21;39.42;;;35.22;;
54897;SDS011;40800;52.704;6.398;2022-11-15T08:53:47;39.80;;;35.65;;
54897;SDS011;40800;52.704;6.398;2022-11-15T08:56:14;41.20;;;36.90;;
54897;SDS011;40800;52.704;6.398;2022-11-15T09:01:06;39.80;;;35.55;;
54897;SDS011;40800;52.704;6.398;2022-11-15T09:03:39;39.50;;;35.53;;
54897;SDS011;40800;52.704;6.398;2022-11-15T09:06:06;41.30;;;36.90;;
54897;SDS011;40800;52.704;6.398;2022-11-15T09:08:31;39.17;;;35.17;;
54897;SDS011;40800;52.704;6.398;2022-11-15T09:10:57;38.10;;;34.40;;
54897;SDS011;40800;52.704;6.398;2022-11-15T09:13:23;38.97;;;35.13;;
54897;SDS011;40800;52.704;6.398;2022-11-15T09:15:48;37.67;;;34.05;;
54897;SDS011;40800;52.704;6.398;2022-11-15T09:18:14;38.47;;;34.63;;
54897;SDS011;40800;52.704;6.398;2022-11-15T09:20:39;37.47;;;33.75;;
54897;SDS011;40800;52.704;6.398;2022-11-15T09:23:05;38.50;;;34.70;;
54897;SDS011;40800;52.704;6.398;2022-11-15T09:25:31;39.15;;;35.28;;
54897;SDS011;40800;52.704;6.398;2022-11-15T09:27:57;35.60;;;32.23;;
54897;SDS011;40800;52.704;6.398;2022-11-15T09:30:23;37.28;;;33.78;;
54897;SDS011;40800;52.704;6.398;2022-11-15T09:32:49;37.33;;;33.70;;
54897;SDS011;40800;52.704;6.398;2022-11-15T09:35:15;35.10;;;31.50;;
54897;SDS011;40800;52.704;6.398;2022-11-15T09:37:41;35.88;;;32.38;;
54897;SDS011;40800;52.704;6.398;2022-11-15T09:40:11;34.25;;;31.02;;
54897;SDS011;40800;52.704;6.398;2022-11-15T09:53:22;29.58;;;27.08;;
54897;SDS011;40800;52.704;6.398;2022-11-15T09:56:14;30.23;;;27.55;;
54897;SDS011;40800;52.704;6.398;2022-11-15T09:59:01;29.00;;;26.33;;
54897;SDS011;40800;52.704;6.398;2022-11-15T10:01:49;26.30;;;23.98;;
54897;SDS011;40800;52.704;6.398;2022-11-15T10:04:20;28.15;;;25.55;;
54897;SDS011;40800;52.704;6.398;2022-11-15T10:06:53;26.90;;;24.60;;
54897;SDS011;40800;52.704;6.398;2022-11-15T10:09:34;27.63;;;25.33;;
54897;SDS011;40800;52.704;6.398;2022-11-15T10:12:08;25.35;;;22.98;;
54897;SDS011;40800;52.704;6.398;2022-11-15T10:14:35;24.17;;;22.17;;
54897;SDS011;40800;52.704;6.398;2022-11-15T10:17:11;25.52;;;23.33;;
54897;SDS011;40800;52.704;6.398;2022-11-15T10:19:50;25.05;;;22.77;;
54897;SDS011;40800;52.704;6.398;2022-11-15T10:22:28;24.13;;;22.02;;
54897;SDS011;40800;52.704;6.398;2022-11-15T10:27:38;22.73;;;20.83;;
54897;SDS011;40800;52.704;6.398;2022-11-15T10:30:10;22.67;;;20.77;;
54897;SDS011;40800;52.704;6.398;2022-11-15T10:32:38;21.60;;;19.75;;
54897;SDS011;40800;52.704;6.398;2022-11-15T10:35:20;20.00;;;18.40;;
54897;SDS011;40800;52.704;6.398;2022-11-15T10:37:51;19.80;;;18.20;;
54897;SDS011;40800;52.704;6.398;2022-11-15T10:40:21;20.27;;;18.48;;
54897;SDS011;40800;52.704;6.398;2022-11-15T10:42:49;18.83;;;17.40;;
54897;SDS011;40800;52.704;6.398;2022-11-15T10:45:35;19.58;;;17.73;;
54897;SDS011;40800;52.704;6.398;2022-11-15T10:53:15;16.98;;;15.48;;
54897;SDS011;40800;52.704;6.398;2022-11-15T10:55:48;16.45;;;15.15;;
54897;SDS011;40800;52.704;6.398;2022-11-15T11:01:07;15.82;;;14.43;;
54897;SDS011;40800;52.704;6.398;2022-11-15T11:03:36;16.15;;;14.80;;
54897;SDS011;40800;52.704;6.398;2022-11-15T11:06:13;15.82;;;14.63;;
54897;SDS011;40800;52.704;6.398;2022-11-15T11:08:44;16.27;;;14.70;;
54897;SDS011;40800;52.704;6.398;2022-11-15T11:11:22;16.48;;;14.98;;
54897;SDS011;40800;52.704;6.398;2022-11-15T11:13:48;15.35;;;14.05;;
54897;SDS011;40800;52.704;6.398;2022-11-15T11:21:34;15.23;;;13.82;;
54897;SDS011;40800;52.704;6.398;2022-11-15T11:24:21;14.85;;;13.55;;
54897;SDS011;40800;52.704;6.398;2022-11-15T11:30:00;12.98;;;12.02;;
54897;SDS011;40800;52.704;6.398;2022-11-15T11:37:39;11.93;;;10.93;;
54897;SDS011;40800;52.704;6.398;2022-11-15T11:46:14;11.70;;;10.68;;
54897;SDS011;40800;52.704;6.398;2022-11-15T11:48:53;12.23;;;11.13;;
54897;SDS011;40800;52.704;6.398;2022-11-15T11:51:28;12.18;;;11.20;;
54897;SDS011;40800;52.704;6.398;2022-11-15T11:54:42;12.30;;;11.10;;
54897;SDS011;40800;52.704;6.398;2022-11-15T11:56:58;11.75;;;10.65;;
54897;SDS011;40800;52.704;6.398;2022-11-15T12:01:53;12.48;;;11.48;;
54897;SDS011;40800;52.704;6.398;2022-11-15T12:18:26;10.35;;;9.52;;
54897;SDS011;40800;52.704;6.398;2022-11-15T12:20:58;10.45;;;9.65;;
54897;SDS011;40800;52.704;6.398;2022-11-15T12:23:29;10.98;;;10.00;;
54897;SDS011;40800;52.704;6.398;2022-11-15T12:26:07;10.68;;;9.70;;
54897;SDS011;40800;52.704;6.398;2022-11-15T12:28:42;11.07;;;10.02;;
54897;SDS011;40800;52.704;6.398;2022-11-15T12:31:23;10.90;;;10.18;;
54897;SDS011;40800;52.704;6.398;2022-11-15T12:36:44;10.60;;;9.90;;
54897;SDS011;40800;52.704;6.398;2022-11-15T12:39:11;11.25;;;10.23;;
54897;SDS011;40800;52.704;6.398;2022-11-15T12:44:05;10.13;;;9.32;;
54897;SDS011;40800;52.704;6.398;2022-11-15T12:52:08;8.73;;;8.13;;
54897;SDS011;40800;52.704;6.398;2022-11-15T13:02:45;7.93;;;7.32;;
54897;SDS011;40800;52.704;6.398;2022-11-15T13:17:45;7.10;;;6.50;;
54897;SDS011;40800;52.704;6.398;2022-11-15T13:25:45;7.20;;;6.70;;
54897;SDS011;40800;52.704;6.398;2022-11-15T13:31:01;6.88;;;6.38;;
54897;SDS011;40800;52.704;6.398;2022-11-15T13:33:46;7.07;;;6.40;;
54897;SDS011;40800;52.704;6.398;2022-11-15T13:36:25;6.80;;;6.20;;
54897;SDS011;40800;52.704;6.398;2022-11-15T13:39:12;6.95;;;6.25;;
54897;SDS011;40800;52.704;6.398;2022-11-15T13:41:50;7.50;;;5.90;;
54897;SDS011;40800;52.704;6.398;2022-11-15T13:44:27;6.13;;;5.53;;
54897;SDS011;40800;52.704;6.398;2022-11-15T13:47:05;6.50;;;5.75;;
54897;SDS011;40800;52.704;6.398;2022-11-15T13:49:40;5.65;;;5.25;;
54897;SDS011;40800;52.704;6.398;2022-11-15T13:52:07;5.67;;;5.27;;
54897;SDS011;40800;52.704;6.398;2022-11-15T13:54:38;6.10;;;5.50;;
54897;SDS011;40800;52.704;6.398;2022-11-15T13:57:10;5.63;;;5.13;;
54897;SDS011;40800;52.704;6.398;2022-11-15T13:59:48;4.95;;;4.38;;
54897;SDS011;40800;52.704;6.398;2022-11-15T14:02:18;4.68;;;3.97;;
54897;SDS011;40800;52.704;6.398;2022-11-15T14:04:48;4.25;;;3.47;;
54897;SDS011;40800;52.704;6.398;2022-11-15T14:07:18;5.50;;;3.15;;
54897;SDS011;40800;52.704;6.398;2022-11-15T14:09:46;5.07;;;2.45;;
54897;SDS011;40800;52.704;6.398;2022-11-15T14:14:54;3.40;;;1.70;;
54897;SDS011;40800;52.704;6.398;2022-11-15T14:19:55;3.33;;;1.67;;
54897;SDS011;40800;52.704;6.398;2022-11-15T14:22:26;3.40;;;1.83;;
54897;SDS011;40800;52.704;6.398;2022-11-15T14:27:40;4.28;;;2.20;;
54897;SDS011;40800;52.704;6.398;2022-11-15T14:30:14;3.20;;;1.73;;
54897;SDS011;40800;52.704;6.398;2022-11-15T14:32:45;5.55;;;2.22;;
54897;SDS011;40800;52.704;6.398;2022-11-15T14:35:14;4.47;;;2.33;;
54897;SDS011;40800;52.704;6.398;2022-11-15T14:37:43;5.05;;;2.03;;
54897;SDS011;40800;52.704;6.398;2022-11-15T14:40:12;4.20;;;2.37;;
54897;SDS011;40800;52.704;6.398;2022-11-15T14:42:42;6.85;;;2.50;;
54897;SDS011;40800;52.704;6.398;2022-11-15T14:45:14;4.38;;;2.38;;
54897;SDS011;40800;52.704;6.398;2022-11-15T14:47:41;6.03;;;2.97;;
54897;SDS011;40800;52.704;6.398;2022-11-15T14:50:14;3.53;;;2.80;;
54897;SDS011;40800;52.704;6.398;2022-11-15T14:52:44;6.20;;;3.05;;
54897;SDS011;40800;52.704;6.398;2022-11-15T14:55:25;7.50;;;3.57;;
54897;SDS011;40800;52.704;6.398;2022-11-15T14:57:57;7.18;;;3.97;;
54897;SDS011;40800;52.704;6.398;2022-11-15T15:00:23;6.03;;;4.70;;
54897;SDS011;40800;52.704;6.398;2022-11-15T15:02:50;9.27;;;5.22;;
54897;SDS011;40800;52.704;6.398;2022-11-15T15:05:20;8.00;;;5.82;;
54897;SDS011;40800;52.704;6.398;2022-11-15T15:07:50;6.72;;;6.00;;
54897;SDS011;40800;52.704;6.398;2022-11-15T15:10:18;10.45;;;6.57;;
54897;SDS011;40800;52.704;6.398;2022-11-15T15:12:44;9.30;;;7.00;;
54897;SDS011;40800;52.704;6.398;2022-11-15T15:15:18;9.25;;;7.75;;
54897;SDS011;40800;52.704;6.398;2022-11-15T15:17:48;10.30;;;8.35;;
54897;SDS011;40800;52.704;6.398;2022-11-15T15:20:14;9.15;;;8.25;;
54897;SDS011;40800;52.704;6.398;2022-11-15T15:22:40;12.48;;;9.30;;
54897;SDS011;40800;52.704;6.398;2022-11-15T15:27:47;11.25;;;8.80;;
54897;SDS011;40800;52.704;6.398;2022-11-15T15:30:13;13.53;;;9.50;;
54897;SDS011;40800;52.704;6.398;2022-11-15T15:32:39;9.68;;;8.68;;
54897;SDS011;40800;52.704;6.398;2022-11-15T15:35:04;10.93;;;9.10;;
54897;SDS011;40800;52.704;6.398;2022-11-15T15:37:30;9.20;;;8.38;;
54897;SDS011;40800;52.704;6.398;2022-11-15T15:39:58;9.95;;;8.75;;
54897;SDS011;40800;52.704;6.398;2022-11-15T15:42:24;9.02;;;8.30;;
54897;SDS011;40800;52.704;6.398;2022-11-15T15:44:50;10.38;;;8.65;;
54897;SDS011;40800;52.704;6.398;2022-11-15T15:47:22;9.35;;;8.18;;
54897;SDS011;40800;52.704;6.398;2022-11-15T15:49:48;9.40;;;8.40;;
54897;SDS011;40800;52.704;6.398;2022-11-15T15:52:15;10.10;;;9.02;;
54897;SDS011;40800;52.704;6.398;2022-11-15T15:54:41;10.20;;;9.13;;
54897;SDS011;40800;52.704;6.398;2022-11-15T15:57:07;19.02;;;11.75;;
54897;SDS011;40800;52.704;6.398;2022-11-15T15:59:36;10.85;;;8.90;;
54897;SDS011;40800;52.704;6.398;2022-11-15T16:02:01;10.20;;;8.70;;
54897;SDS011;40800;52.704;6.398;2022-11-15T16:04:27;9.18;;;8.27;;
54897;SDS011;40800;52.704;6.398;2022-11-15T16:06:57;10.38;;;9.32;;
54897;SDS011;40800;52.704;6.398;2022-11-15T16:09:24;9.82;;;9.02;;
54897;SDS011;40800;52.704;6.398;2022-11-15T16:12:19;9.73;;;8.93;;
54897;SDS011;40800;52.704;6.398;2022-11-15T16:14:44;9.68;;;8.77;;
54897;SDS011;40800;52.704;6.398;2022-11-15T16:17:25;9.23;;;8.40;;
54897;SDS011;40800;52.704;6.398;2022-11-15T16:20:03;14.52;;;8.30;;
54897;SDS011;40800;52.704;6.398;2022-11-15T16:22:29;8.45;;;7.68;;
54897;SDS011;40800;52.704;6.398;2022-11-15T16:24:55;7.70;;;7.00;;
54897;SDS011;40800;52.704;6.398;2022-11-15T16:27:21;7.60;;;6.90;;
54897;SDS011;40800;52.704;6.398;2022-11-15T16:29:47;7.40;;;6.15;;
54897;SDS011;40800;52.704;6.398;2022-11-15T16:32:13;6.20;;;5.60;;
54897;SDS011;40800;52.704;6.398;2022-11-15T16:34:40;6.57;;;4.80;;
54897;SDS011;40800;52.704;6.398;2022-11-15T16:37:09;7.40;;;4.30;;
54897;SDS011;40800;52.704;6.398;2022-11-15T16:39:46;5.57;;;4.35;;
54897;SDS011;40800;52.704;6.398;2022-11-15T16:42:12;4.60;;;3.50;;
54897;SDS011;40800;52.704;6.398;2022-11-15T16:44:38;4.55;;;3.20;;
54897;SDS011;40800;52.704;6.398;2022-11-15T16:47:03;6.65;;;3.22;;
54897;SDS011;40800;52.704;6.398;2022-11-15T16:49:29;4.88;;;3.00;;
54897;SDS011;40800;52.704;6.398;2022-11-15T16:51:55;5.88;;;3.00;;
54897;SDS011;40800;52.704;6.398;2022-11-15T16:54:20;5.63;;;3.00;;
54897;SDS011;40800;52.704;6.398;2022-11-15T16:56:46;3.63;;;2.75;;
54897;SDS011;40800;52.704;6.398;2022-11-15T16:59:15;5.47;;;2.80;;
54897;SDS011;40800;52.704;6.398;2022-11-15T17:01:42;4.35;;;2.33;;